Main page
METAR-TAF:

METAR-TAF

Airports :

Durham Tees Valley Airport

Durham, England

latitude: 54-31N, longitude: 001-25W, elevation: 37 m

Current weather observation

The report was made 39 minutes ago, at 07:20 UTC
Calm wind
Temperature 2°C
Humidity 93%
Pressure 1015 hPa
Visibility: 4000 m
Few clouds at a height of 400 ft
Broken clouds at a height of 700 ft
mist

METAR: EGNV 200720Z 00000KT 4000 BR FEW004 BKN007 02/01 Q1015

Time: 07:59 (07:59 UTC)

Forecast

The report was made 23 minutes ago, at 07:36 UTC
Forecast valid from 20 at 07 UTC to 20 at 15 UTC
Wind 3 kt from variable directions
Visibility: 8000 m
Broken clouds at a height of 800 ft
Temporary
from 20 at 07 UTC to 20 at 09 UTC
Visibility: 4000 m
mist
Becoming
from 20 at 09 UTC to 20 at 12 UTC
Visibility 10 km or more
Scattered clouds at a height of 2000 ft

TAF: EGNV 200736Z 2007/2015 VRB03KT 8000 BKN008 TEMPO 2007/2009 4000 BR BECMG 2009/2012 9999 SCT020

Weather observations and forecasts of more than 4000 airports (METAR and TAF reports).

The available stations are represented by yellow and red dots on the map.

Hover mouse over dot to see the name of the station.

Then click to see weather observations and forecasts.

To change the map : click on the green buttons with a black cross to zoom in, on the green button with a dash to zoom out, or on the green arrows for adjacent maps.


METAR-TAF: